createdAt,value
2018-02-01T00:01:43.368Z,93.04
2018-02-01T00:04:14.563Z,92.50
2018-02-01T00:06:43.560Z,92.96
2018-02-01T00:09:13.332Z,93.23
2018-02-01T00:11:42.261Z,92.34
2018-02-01T00:14:12.107Z,92.57
2018-02-01T00:16:43.477Z,92.11
2018-02-01T00:19:13.157Z,92.15
2018-02-01T00:21:42.232Z,91.44
2018-02-01T00:24:11.210Z,91.78
2018-02-01T00:26:40.200Z,91.35
2018-02-01T00:29:09.121Z,91.59
2018-02-01T00:37:40.055Z,91.06
2018-02-01T00:40:08.895Z,91.12
2018-02-01T00:42:38.936Z,91.17
2018-02-01T00:45:08.010Z,91.66
2018-02-01T00:47:37.000Z,92.79
2018-02-01T00:50:07.014Z,92.04
2018-02-01T00:52:36.055Z,92.39
2018-02-01T00:55:05.209Z,92.35
2018-02-01T00:57:34.405Z,92.04
2018-02-01T01:00:05.888Z,92.29
2018-02-01T01:02:35.029Z,92.51
2018-02-01T01:05:04.634Z,92.53
2018-02-01T01:07:33.640Z,92.08
2018-02-01T01:10:03.379Z,91.30
2018-02-01T01:12:33.217Z,92.72
2018-02-01T01:15:04.154Z,92.40
2018-02-01T01:17:33.116Z,91.88
2018-02-01T01:20:01.928Z,91.59
2018-02-01T01:22:34.482Z,92.22
2018-02-01T01:25:03.576Z,92.15
2018-02-01T01:27:32.568Z,91.48
2018-02-01T01:30:02.623Z,90.62
2018-02-01T01:32:31.512Z,90.48
2018-02-01T01:35:00.432Z,90.11
2018-02-01T01:37:31.206Z,90.40
2018-02-01T01:40:00.300Z,90.37
2018-02-01T01:42:29.195Z,90.16
2018-02-01T01:45:00.842Z,89.72
2018-02-01T01:47:29.771Z,90.03
2018-02-01T01:49:58.665Z,89.67
2018-02-01T01:52:29.544Z,89.03
2018-02-01T01:54:58.601Z,89.52
2018-02-01T01:57:27.660Z,89.45
2018-02-01T01:59:56.796Z,90.39
2018-02-01T02:02:25.846Z,90.33
2018-02-01T02:04:55.668Z,90.19
2018-02-01T02:07:26.360Z,90.15
2018-02-01T02:09:55.600Z,90.68
2018-02-01T02:12:26.215Z,89.91
2018-02-01T02:14:57.790Z,90.23
2018-02-01T02:17:27.183Z,90.62
2018-02-01T02:19:57.203Z,90.45
2018-02-01T02:22:27.636Z,89.54
2018-02-01T02:24:57.753Z,89.38
2018-02-01T02:27:27.683Z,89.28
2018-02-01T02:29:57.478Z,89.87
2018-02-01T02:32:27.494Z,91.06
2018-02-01T02:34:59.969Z,91.14
2018-02-01T02:37:29.069Z,90.23
2018-02-01T02:39:58.202Z,90.01
2018-02-01T02:42:28.627Z,90.70
2018-02-01T02:44:57.624Z,90.94
2018-02-01T02:47:26.612Z,89.97
2018-02-01T02:49:56.437Z,89.69
2018-02-01T02:52:25.337Z,89.71
2018-02-01T02:54:54.888Z,88.86
2018-02-01T02:57:24.909Z,88.72
2018-02-01T02:59:55.643Z,88.87
2018-02-01T03:02:24.666Z,89.90
2018-02-01T03:04:56.086Z,89.43
2018-02-01T03:07:26.207Z,89.76
2018-02-01T03:09:56.392Z,89.34
2018-02-01T03:12:25.402Z,89.53
2018-02-01T03:14:54.515Z,90.12
2018-02-01T03:17:23.825Z,90.00
2018-02-01T03:19:53.766Z,89.66
2018-02-01T03:22:23.547Z,89.39
2018-02-01T03:24:53.362Z,89.52
2018-02-01T03:27:22.352Z,89.69
2018-02-01T03:29:53.633Z,90.03
2018-02-01T03:32:25.359Z,90.20
2018-02-01T03:34:55.070Z,90.02
2018-02-01T03:37:24.092Z,89.37
2018-02-01T03:39:54.010Z,89.39
2018-02-01T03:42:23.071Z,89.07
2018-02-01T03:44:54.999Z,89.04
2018-02-01T03:47:24.064Z,89.05
2018-02-01T03:49:53.129Z,89.04
2018-02-01T03:52:22.210Z,88.95
2018-02-01T03:54:51.333Z,88.83
2018-02-01T03:57:23.221Z,88.87
2018-02-01T03:59:52.274Z,89.25
2018-02-01T04:02:22.393Z,89.28
2018-02-01T04:04:51.592Z,89.17
2018-02-01T04:07:22.299Z,89.14
2018-02-01T04:09:51.244Z,89.79
2018-02-01T04:12:37.535Z,89.78
2018-02-01T04:15:06.737Z,89.55
2018-02-01T04:17:35.764Z,89.80
2018-02-01T04:20:05.649Z,89.34
2018-02-01T04:22:35.667Z,89.22
2018-02-01T04:25:04.765Z,89.54
2018-02-01T04:27:35.557Z,89.53
2018-02-01T04:30:04.685Z,89.68
2018-02-01T04:32:34.351Z,89.56
2018-02-01T04:35:04.997Z,89.27
2018-02-01T04:37:34.037Z,89.53
2018-02-01T04:40:02.917Z,89.63
2018-02-01T04:42:32.735Z,89.50
2018-02-01T04:45:01.911Z,89.46
2018-02-01T04:47:30.822Z,89.69
2018-02-01T04:50:01.416Z,89.95
2018-02-01T04:52:30.412Z,90.22
2018-02-01T04:54:59.374Z,90.50
2018-02-01T04:57:29.360Z,90.98
2018-02-01T04:59:58.352Z,90.63
2018-02-01T05:02:28.370Z,90.47
2018-02-01T05:04:59.251Z,90.64
2018-02-01T05:07:28.436Z,90.84
2018-02-01T05:09:57.361Z,91.49
2018-02-01T05:12:27.285Z,92.30
2018-02-01T05:14:56.275Z,92.02
2018-02-01T05:17:26.116Z,91.52
2018-02-01T05:20:01.659Z,90.81
2018-02-01T05:22:30.865Z,90.84
2018-02-01T05:25:03.339Z,91.04
2018-02-01T05:27:32.639Z,92.03
2018-02-01T05:30:01.735Z,92.34
2018-02-01T05:32:32.468Z,91.92
2018-02-01T05:35:02.368Z,91.20
2018-02-01T05:37:31.483Z,90.66
2018-02-01T05:40:01.540Z,90.59
2018-02-01T05:42:30.721Z,90.96
2018-02-01T05:44:59.795Z,90.84
2018-02-01T05:47:29.097Z,90.66
2018-02-01T05:49:59.853Z,90.88
2018-02-01T05:52:29.546Z,91.16
2018-02-01T05:54:58.537Z,90.78
2018-02-01T05:57:27.528Z,91.02
2018-02-01T05:59:58.338Z,90.94
2018-02-01T06:02:28.141Z,90.32
2018-02-01T06:04:58.197Z,90.53
2018-02-01T06:07:28.239Z,90.03
2018-02-01T06:09:57.233Z,89.63
2018-02-01T06:12:26.401Z,89.37
2018-02-01T06:14:57.177Z,88.99
2018-02-01T06:17:26.327Z,88.66
2018-02-01T06:19:55.327Z,88.55
2018-02-01T06:22:26.064Z,88.05
2018-02-01T06:24:55.262Z,88.37
2018-02-01T06:27:24.360Z,88.33
2018-02-01T06:29:55.191Z,87.83
2018-02-01T06:32:24.121Z,87.61
2018-02-01T06:34:53.105Z,87.68
2018-02-01T06:37:22.104Z,87.68
2018-02-01T06:39:51.131Z,87.98
2018-02-01T06:42:21.235Z,87.32
2018-02-01T06:44:50.439Z,86.03
2018-02-01T06:47:19.537Z,86.01
2018-02-01T06:49:49.500Z,86.28
2018-02-01T06:52:19.574Z,86.78
2018-02-01T06:54:49.440Z,86.67
2018-02-01T06:57:18.324Z,85.94
2018-02-01T06:59:48.069Z,85.38
2018-02-01T07:02:18.145Z,82.23
2018-02-01T07:04:48.068Z,79.97
2018-02-01T07:07:17.237Z,78.60
2018-02-01T07:09:46.264Z,78.34
2018-02-01T07:12:17.843Z,78.96
2018-02-01T07:14:49.469Z,79.68
2018-02-01T07:17:18.499Z,80.16
2018-02-01T07:19:47.384Z,80.18
2018-02-01T07:22:20.415Z,80.48
2018-02-01T07:24:49.370Z,77.92
2018-02-01T07:27:18.163Z,78.70
2018-02-01T07:29:48.812Z,78.87
2018-02-01T07:32:17.755Z,78.76
2018-02-01T07:34:47.948Z,78.99
2018-02-01T07:37:21.501Z,79.31
2018-02-01T07:39:50.467Z,78.64
2018-02-01T07:42:20.901Z,77.06
2018-02-01T07:44:51.503Z,76.95
2018-02-01T07:47:21.452Z,77.39
2018-02-01T07:49:50.457Z,76.46
2018-02-01T07:52:22.523Z,76.04
2018-02-01T07:54:51.373Z,74.37
2018-02-01T07:57:20.235Z,72.92
2018-02-01T07:59:49.096Z,70.70
2018-02-01T08:02:17.926Z,68.62
2018-02-01T08:04:46.717Z,66.87
2018-02-01T08:07:16.386Z,66.27
2018-02-01T08:09:45.456Z,65.68
2018-02-01T08:12:14.240Z,64.93
2018-02-01T08:14:43.317Z,65.10
2018-02-01T08:17:12.165Z,65.37
2018-02-01T08:19:41.059Z,65.64
2018-02-01T08:22:10.853Z,65.62
2018-02-01T08:24:39.781Z,65.46
2018-02-01T08:27:08.645Z,65.78
2018-02-01T08:29:38.401Z,65.31
2018-02-01T08:32:07.212Z,66.17
2018-02-01T08:34:36.158Z,66.26
2018-02-01T08:37:05.394Z,66.34
2018-02-01T08:39:34.288Z,65.64
2018-02-01T08:42:03.219Z,64.67
2018-02-01T08:44:32.894Z,63.30
2018-02-01T08:47:01.709Z,64.78
2018-02-01T08:49:30.577Z,66.53
2018-02-01T08:52:00.378Z,66.33
2018-02-01T08:54:29.227Z,66.55
2018-02-01T08:56:58.148Z,65.93
2018-02-01T08:59:26.981Z,65.83
2018-02-01T09:01:55.842Z,66.35
2018-02-01T09:04:24.722Z,66.51
2018-02-01T09:06:53.566Z,66.89
2018-02-01T09:09:22.372Z,67.93
2018-02-01T09:11:51.188Z,67.85
2018-02-01T09:14:21.212Z,67.65
2018-02-01T09:16:50.028Z,67.20
2018-02-01T09:19:18.883Z,67.06
2018-02-01T09:21:47.847Z,66.81
2018-02-01T09:24:16.705Z,67.43
2018-02-01T09:26:45.786Z,67.67
2018-02-01T09:29:14.715Z,67.27
2018-02-01T09:31:43.597Z,67.64
2018-02-01T09:34:12.558Z,66.69
2018-02-01T09:36:44.012Z,67.21
2018-02-01T09:39:12.809Z,68.00
2018-02-01T09:45:16.004Z,65.58
2018-02-01T09:47:44.816Z,64.63
2018-02-01T09:50:13.535Z,63.95
2018-02-01T09:52:42.389Z,63.88
2018-02-01T09:55:11.373Z,63.39
2018-02-01T09:57:40.133Z,63.38
2018-02-01T10:00:09.330Z,63.38
2018-02-01T10:02:38.215Z,63.62
2018-02-01T10:05:07.134Z,63.67
2018-02-01T10:07:40.529Z,62.32
2018-02-01T10:10:09.422Z,63.10
2018-02-01T10:12:38.339Z,61.83
2018-02-01T10:15:07.379Z,61.72
2018-02-01T10:17:36.437Z,61.59
2018-02-01T10:20:05.251Z,61.67
2018-02-01T10:22:35.037Z,61.96
2018-02-01T10:25:03.851Z,62.70
2018-02-01T10:27:32.681Z,62.66
2018-02-01T10:30:02.391Z,62.44
2018-02-01T10:32:31.158Z,62.98
2018-02-01T10:35:00.053Z,63.00
2018-02-01T10:37:28.916Z,63.36
2018-02-01T10:39:57.682Z,62.20
2018-02-01T10:42:26.491Z,62.64
2018-02-01T10:44:56.971Z,62.68
2018-02-01T10:47:25.971Z,62.84
2018-02-01T10:49:54.835Z,63.21
2018-02-01T10:52:24.566Z,63.13
2018-02-01T10:54:53.473Z,62.98
2018-02-01T10:57:22.286Z,62.75
2018-02-01T10:59:53.008Z,61.98
2018-02-01T11:02:21.812Z,61.11
2018-02-01T11:04:50.637Z,60.75
2018-02-01T11:07:21.141Z,60.47
2018-02-01T11:09:49.935Z,60.22
2018-02-01T11:12:18.664Z,60.03
2018-02-01T11:14:47.620Z,59.79
2018-02-01T11:17:21.871Z,58.74
2018-02-01T11:19:51.276Z,57.68
2018-02-01T11:22:20.069Z,58.03
2018-02-01T11:24:48.823Z,57.16
2018-02-01T11:27:19.786Z,57.12
2018-02-01T11:29:48.648Z,54.54
2018-02-01T11:32:17.468Z,54.74
2018-02-01T11:34:46.324Z,54.11
2018-02-01T11:37:15.118Z,53.34
2018-02-01T11:39:43.993Z,52.75
2018-02-01T11:42:12.853Z,52.40
2018-02-01T11:44:41.728Z,52.50
2018-02-01T11:47:10.682Z,52.50
2018-02-01T11:49:39.609Z,51.95
2018-02-01T11:52:08.383Z,50.89
2018-02-01T11:54:37.362Z,50.92
2018-02-01T11:57:08.072Z,50.63
2018-02-01T11:59:36.988Z,50.99
2018-02-01T12:02:05.872Z,50.34
2018-02-01T12:04:34.817Z,49.91
2018-02-01T12:07:03.621Z,50.34
2018-02-01T12:09:32.347Z,50.19
2018-02-01T12:12:01.093Z,50.45
2018-02-01T12:14:29.874Z,50.56
2018-02-01T12:16:58.626Z,49.17
2018-02-01T12:19:30.017Z,49.41
2018-02-01T12:21:58.992Z,49.32
2018-02-01T12:24:27.845Z,49.12
2018-02-01T12:26:58.660Z,48.99
2018-02-01T12:29:27.392Z,48.73
2018-02-01T12:31:56.107Z,48.83
2018-02-01T12:34:29.097Z,48.99
2018-02-01T12:36:58.835Z,48.71
2018-02-01T12:39:27.576Z,48.41
2018-02-01T12:41:59.316Z,48.33
2018-02-01T12:44:28.079Z,48.02
2018-02-01T12:46:56.979Z,48.00
2018-02-01T12:49:30.105Z,48.03
2018-02-01T12:51:58.851Z,47.73
2018-02-01T12:54:27.868Z,47.48
2018-02-01T12:57:01.096Z,47.89
2018-02-01T12:59:30.547Z,48.11
2018-02-01T13:01:59.346Z,46.89
2018-02-01T13:04:29.911Z,46.66
2018-02-01T13:06:58.673Z,46.84
2018-02-01T13:09:28.429Z,47.37
2018-02-01T13:11:59.702Z,47.75
2018-02-01T13:14:28.433Z,47.70
2018-02-01T13:16:57.161Z,48.35
2018-02-01T13:19:26.962Z,48.16
2018-02-01T13:21:55.752Z,48.46
2018-02-01T13:24:24.574Z,48.56
2018-02-01T13:26:53.349Z,49.05
2018-02-01T13:29:22.097Z,49.73
2018-02-01T13:31:50.818Z,49.50
2018-02-01T13:34:23.348Z,49.80
2018-02-01T13:36:52.127Z,50.60
2018-02-01T13:39:20.952Z,51.40
2018-02-01T13:41:50.627Z,51.83
2018-02-01T13:44:19.485Z,52.15
2018-02-01T13:46:48.255Z,52.49
2018-02-01T13:49:17.125Z,52.54
2018-02-01T13:51:45.901Z,52.83
2018-02-01T13:54:14.784Z,52.98
2018-02-01T13:56:44.621Z,53.33
2018-02-01T13:59:13.421Z,53.43
2018-02-01T14:01:42.194Z,54.01
2018-02-01T14:04:12.061Z,54.83
2018-02-01T14:06:40.841Z,54.95
2018-02-01T14:09:09.617Z,54.71
2018-02-01T14:11:38.666Z,55.25
2018-02-01T14:14:07.401Z,55.68
2018-02-01T14:16:36.186Z,55.91
2018-02-01T14:19:06.695Z,56.19
2018-02-01T14:21:35.721Z,56.63
2018-02-01T14:24:04.593Z,56.84
2018-02-01T14:26:34.286Z,57.06
2018-02-01T14:29:03.044Z,57.43
2018-02-01T14:31:31.792Z,57.55
2018-02-01T14:34:00.657Z,58.05
2018-02-01T14:36:29.454Z,58.45
2018-02-01T14:38:58.250Z,58.56
2018-02-01T14:41:27.879Z,58.83
2018-02-01T14:43:56.654Z,58.99
2018-02-01T14:46:26.187Z,59.38
2018-02-01T14:48:57.287Z,59.59
2018-02-01T14:51:26.222Z,59.92
2018-02-01T14:53:55.142Z,60.24
2018-02-01T14:56:24.060Z,60.44
2018-02-01T14:58:52.831Z,60.63
2018-02-01T15:01:21.726Z,60.72
2018-02-01T15:03:50.476Z,60.90
2018-02-01T15:06:19.224Z,60.93
2018-02-01T15:08:48.082Z,61.25
2018-02-01T15:11:18.188Z,61.86
2018-02-01T15:13:46.985Z,62.10
2018-02-01T15:16:15.845Z,62.39
2018-02-01T15:18:46.472Z,62.65
2018-02-01T15:21:17.629Z,62.78
2018-02-01T15:23:46.367Z,63.28
2018-02-01T15:26:15.155Z,63.99
2018-02-01T15:28:43.881Z,64.64
2018-02-01T15:31:12.625Z,65.22
2018-02-01T15:33:43.132Z,66.53
2018-02-01T15:36:11.925Z,67.81
2018-02-01T15:38:40.704Z,68.09
2018-02-01T15:41:09.750Z,68.39
2018-02-01T15:43:38.508Z,68.49
2018-02-01T15:46:07.304Z,68.62
2018-02-01T15:48:37.867Z,68.84
2018-02-01T15:51:06.699Z,69.08
2018-02-01T15:53:35.468Z,69.43
2018-02-01T15:56:04.444Z,69.83
2018-02-01T15:58:33.228Z,69.92
2018-02-01T16:01:02.011Z,70.15
2018-02-01T16:03:31.013Z,70.02
2018-02-01T16:05:59.757Z,70.43
2018-02-01T16:08:28.507Z,72.02
2018-02-01T16:10:59.988Z,73.69
2018-02-01T16:13:28.769Z,75.19
2018-02-01T16:15:57.516Z,76.90
2018-02-01T16:18:30.644Z,77.33
2018-02-01T16:20:59.467Z,77.41
2018-02-01T16:23:28.192Z,77.34
2018-02-01T16:25:57.880Z,77.00
2018-02-01T16:28:28.567Z,76.82
2018-02-01T16:30:57.427Z,76.45
2018-02-01T16:33:27.425Z,76.45
2018-02-01T16:35:56.227Z,76.21
2018-02-01T16:38:25.013Z,76.21
2018-02-01T16:40:54.685Z,75.84
2018-02-01T16:43:27.558Z,75.56
2018-02-01T16:45:56.332Z,75.25
2018-02-01T16:48:25.082Z,75.02
2018-02-01T16:50:53.995Z,75.25
2018-02-01T16:53:22.917Z,75.30
2018-02-01T16:55:51.680Z,75.23
2018-02-01T16:58:20.549Z,75.19
2018-02-01T17:00:50.200Z,75.45
2018-02-01T17:03:18.951Z,75.26
2018-02-01T17:05:47.911Z,75.02
2018-02-01T17:08:18.524Z,75.45
2018-02-01T17:10:47.282Z,75.32
2018-02-01T17:13:16.077Z,75.31
2018-02-01T17:15:46.528Z,75.73
2018-02-01T17:18:19.081Z,75.69
2018-02-01T17:20:48.026Z,76.57
2018-02-01T17:23:18.218Z,77.07
2018-02-01T17:25:47.032Z,76.88
2018-02-01T17:28:15.948Z,76.58
2018-02-01T17:30:44.801Z,76.70
2018-02-01T17:33:13.522Z,76.67
2018-02-01T17:35:43.922Z,76.99
2018-02-01T17:38:16.894Z,77.03
2018-02-01T17:40:45.751Z,77.10
2018-02-01T17:43:17.896Z,77.13
2018-02-01T17:45:46.753Z,76.92
2018-02-01T17:48:15.610Z,77.28
2018-02-01T17:50:44.396Z,77.34
2018-02-01T17:53:13.238Z,77.35
2018-02-01T17:55:42.024Z,77.22
2018-02-01T17:58:10.833Z,77.35
2018-02-01T18:00:40.468Z,77.29
2018-02-01T18:03:09.239Z,77.09
2018-02-01T18:05:38.213Z,77.11
2018-02-01T18:08:07.049Z,77.07
2018-02-01T18:10:35.883Z,76.71
2018-02-01T18:13:04.683Z,77.15
2018-02-01T18:15:36.912Z,76.88
2018-02-01T18:18:05.702Z,76.23
2018-02-01T18:20:34.502Z,75.95
2018-02-01T18:23:04.331Z,76.60
2018-02-01T18:25:43.789Z,76.69
2018-02-01T18:28:14.470Z,76.76
2018-02-01T18:30:43.222Z,77.02
2018-02-01T18:33:12.101Z,76.92
2018-02-01T18:35:41.059Z,76.78
2018-02-01T18:38:09.862Z,76.98
2018-02-01T18:40:45.404Z,77.70
2018-02-01T18:43:18.658Z,76.95
2018-02-01T18:45:48.237Z,77.37
2018-02-01T18:48:17.029Z,77.52
2018-02-01T18:50:45.869Z,77.47
2018-02-01T18:53:14.690Z,77.81
2018-02-01T18:55:44.060Z,77.79
2018-02-01T18:58:12.847Z,77.89
2018-02-01T19:00:43.938Z,77.91
2018-02-01T19:03:13.061Z,78.30
2018-02-01T19:05:42.039Z,78.28
2018-02-01T19:08:11.259Z,78.23
2018-02-01T19:10:40.174Z,77.84
2018-02-01T19:13:09.012Z,77.58
2018-02-01T19:15:37.955Z,77.51
2018-02-01T19:18:06.798Z,77.95
2018-02-01T19:20:36.697Z,77.80
2018-02-01T19:23:06.556Z,77.65
2018-02-01T19:25:35.368Z,77.56
2018-02-01T19:28:04.256Z,77.81
2018-02-01T19:30:33.988Z,78.95
2018-02-01T19:33:02.852Z,80.25
2018-02-01T19:35:31.640Z,79.67
2018-02-01T19:38:00.713Z,79.71
2018-02-01T19:40:30.147Z,79.63
2018-02-01T19:42:58.967Z,79.94
2018-02-01T19:45:27.898Z,79.75
2018-02-01T19:47:56.823Z,79.44
2018-02-01T19:50:25.673Z,79.17
2018-02-01T19:52:55.749Z,79.15
2018-02-01T19:55:24.643Z,79.21
2018-02-01T19:57:53.425Z,79.50
2018-02-01T20:00:22.355Z,79.67
2018-02-01T20:02:51.201Z,79.74
2018-02-01T20:05:20.109Z,79.85
2018-02-01T20:07:50.686Z,80.11
2018-02-01T20:10:19.575Z,80.33
2018-02-01T20:12:48.368Z,80.43
2018-02-01T20:15:17.279Z,80.83
2018-02-01T20:17:47.832Z,81.26
2018-02-01T20:20:17.093Z,81.29
2018-02-01T20:25:20.303Z,81.83
2018-02-01T20:27:51.006Z,81.97
2018-02-01T20:30:19.792Z,82.83
2018-02-01T20:32:48.694Z,83.21
2018-02-01T20:35:17.639Z,83.27
2018-02-01T20:37:46.529Z,83.16
2018-02-01T20:40:15.383Z,82.92
2018-02-01T20:42:44.665Z,82.96
2018-02-01T20:45:13.481Z,82.88
2018-02-01T20:47:42.413Z,83.14
2018-02-01T20:50:11.267Z,83.51
2018-02-01T20:52:40.272Z,84.37
2018-02-01T20:55:09.087Z,85.20
2018-02-01T20:57:38.843Z,84.75
2018-02-01T21:00:07.651Z,84.13
2018-02-01T21:02:36.486Z,83.83
2018-02-01T21:05:05.682Z,83.70
2018-02-01T21:07:34.567Z,83.69
2018-02-01T21:10:03.415Z,83.76
2018-02-01T21:12:32.461Z,84.10
2018-02-01T21:15:01.300Z,84.42
2018-02-01T21:17:30.167Z,84.50
2018-02-01T21:20:03.750Z,84.73
2018-02-01T21:22:32.574Z,85.30
2018-02-01T21:25:01.359Z,86.22
2018-02-01T21:27:31.156Z,86.52
2018-02-01T21:29:59.952Z,87.51
2018-02-01T21:32:28.738Z,88.16
2018-02-01T21:34:57.657Z,87.74
2018-02-01T21:37:26.494Z,87.04
2018-02-01T21:39:55.670Z,86.49
2018-02-01T21:42:26.992Z,86.31
2018-02-01T21:44:55.894Z,86.04
2018-02-01T21:47:24.710Z,85.79
2018-02-01T21:49:55.204Z,85.87
2018-02-01T21:52:24.091Z,85.91
2018-02-01T21:54:52.965Z,85.97
2018-02-01T21:57:24.772Z,86.33
2018-02-01T21:59:53.664Z,87.60
2018-02-01T22:02:22.569Z,88.18
2018-02-01T22:04:53.325Z,87.67
2018-02-01T22:07:22.161Z,88.11
2018-02-01T22:09:51.265Z,87.76
2018-02-01T22:12:21.816Z,87.42
2018-02-01T22:14:53.253Z,87.34
2018-02-01T22:17:24.190Z,87.33
2018-02-01T22:19:55.030Z,87.46
2018-02-01T22:22:24.299Z,87.34
2018-02-01T22:24:53.286Z,87.46
2018-02-01T22:27:23.481Z,89.32
2018-02-01T22:29:52.615Z,89.95
2018-02-01T22:32:24.099Z,88.77
2018-02-01T22:34:54.116Z,88.64
2018-02-01T22:37:22.970Z,88.50
2018-02-01T22:39:53.751Z,88.10
2018-02-01T22:42:22.919Z,88.79
2018-02-01T22:44:51.941Z,88.26
2018-02-01T22:47:24.411Z,87.60
2018-02-01T22:49:54.432Z,88.06
2018-02-01T22:52:24.309Z,87.61
2018-02-01T22:54:53.340Z,86.87
2018-02-01T22:57:23.083Z,87.42
2018-02-01T22:59:52.305Z,87.15
2018-02-01T23:02:22.268Z,86.36
2018-02-01T23:04:52.179Z,85.15
2018-02-01T23:07:23.006Z,84.66
2018-02-01T23:09:52.607Z,84.29
2018-02-01T23:12:26.020Z,83.57
2018-02-01T23:14:56.418Z,83.82
2018-02-01T23:17:25.526Z,84.15
2018-02-01T23:19:58.946Z,83.63
2018-02-01T23:22:31.672Z,83.17
2018-02-01T23:25:01.653Z,82.78
2018-02-01T23:27:31.154Z,82.85
2018-02-01T23:30:00.473Z,82.49
2018-02-01T23:32:30.450Z,82.36
2018-02-01T23:35:00.669Z,82.57
2018-02-01T23:37:30.222Z,82.72
2018-02-01T23:40:02.168Z,82.49
2018-02-01T23:42:31.361Z,82.70
2018-02-01T23:45:00.558Z,82.80
2018-02-01T23:47:30.161Z,83.68
2018-02-01T23:49:59.227Z,83.41
2018-02-01T23:52:28.391Z,83.21
2018-02-01T23:54:59.842Z,82.77
2018-02-01T23:57:29.565Z,82.01
